createdAt,value
2018-09-09T00:01:23.837Z,66.99
2018-09-09T00:03:51.956Z,67.45
2018-09-09T00:06:19.991Z,67.11
2018-09-09T00:08:48.012Z,67.29
2018-09-09T00:11:16.063Z,68.09
2018-09-09T00:13:44.259Z,67.96
2018-09-09T00:16:12.281Z,67.52
2018-09-09T00:18:40.336Z,67.98
2018-09-09T00:21:08.384Z,67.53
2018-09-09T00:23:36.456Z,67.34
2018-09-09T00:26:05.512Z,67.36
2018-09-09T00:28:33.866Z,67.40
2018-09-09T00:31:01.901Z,67.92
2018-09-09T00:33:30.059Z,67.25
2018-09-09T00:35:58.126Z,67.52
2018-09-09T00:38:26.542Z,67.76
2018-09-09T00:40:54.576Z,67.01
2018-09-09T00:43:22.694Z,67.77
2018-09-09T00:45:50.953Z,67.47
2018-09-09T00:48:19.021Z,67.39
2018-09-09T00:50:52.492Z,67.90
2018-09-09T00:53:25.781Z,67.94
2018-09-09T00:55:54.025Z,67.43
2018-09-09T00:58:22.052Z,68.05
2018-09-09T01:00:55.324Z,68.33
2018-09-09T01:03:23.397Z,67.62
2018-09-09T01:05:51.408Z,67.83
2018-09-09T01:08:19.653Z,68.42
2018-09-09T01:10:48.256Z,67.56
2018-09-09T01:13:16.664Z,67.99
2018-09-09T01:15:44.697Z,67.62
2018-09-09T01:18:13.313Z,68.34
2018-09-09T01:20:41.518Z,67.38
2018-09-09T01:23:09.544Z,68.07
2018-09-09T01:25:37.580Z,67.82
2018-09-09T01:28:05.724Z,67.53
2018-09-09T01:30:33.769Z,67.67
2018-09-09T01:33:01.801Z,68.08
2018-09-09T01:35:29.868Z,67.80
2018-09-09T01:37:57.913Z,67.84
2018-09-09T01:40:25.960Z,67.65
2018-09-09T01:42:54.155Z,67.94
2018-09-09T01:45:22.198Z,67.29
2018-09-09T01:47:50.248Z,67.30
2018-09-09T01:50:18.368Z,67.26
2018-09-09T01:52:46.435Z,67.75
2018-09-09T01:55:14.472Z,67.48
2018-09-09T01:57:42.505Z,67.56
2018-09-09T02:00:10.966Z,67.83
2018-09-09T02:02:39.008Z,67.89
2018-09-09T02:05:07.131Z,67.83
2018-09-09T02:07:35.172Z,67.93
2018-09-09T02:10:03.244Z,67.62
2018-09-09T02:12:31.298Z,67.81
2018-09-09T02:14:59.336Z,68.36
2018-09-09T02:17:27.524Z,67.86
2018-09-09T02:19:55.721Z,67.63
2018-09-09T02:22:23.751Z,67.95
2018-09-09T02:24:51.975Z,68.42
2018-09-09T02:27:20.029Z,68.38
2018-09-09T02:29:48.069Z,67.99
2018-09-09T02:32:16.468Z,68.18
2018-09-09T02:34:44.556Z,68.18
2018-09-09T02:37:12.612Z,67.92
2018-09-09T02:39:40.644Z,68.52
2018-09-09T02:42:08.746Z,68.54
2018-09-09T02:44:36.920Z,68.34
2018-09-09T02:47:05.218Z,68.98
2018-09-09T02:49:33.246Z,68.40
2018-09-09T02:52:01.273Z,68.71
2018-09-09T02:54:29.612Z,69.03
2018-09-09T02:56:58.117Z,69.30
2018-09-09T02:59:26.186Z,68.85
2018-09-09T03:01:54.216Z,69.66
2018-09-09T03:04:22.818Z,69.73
2018-09-09T03:06:50.870Z,69.50
2018-09-09T03:09:19.081Z,69.21
2018-09-09T03:11:47.144Z,69.26
2018-09-09T03:14:15.520Z,69.36
2018-09-09T03:16:43.564Z,69.08
2018-09-09T03:19:11.603Z,69.39
2018-09-09T03:21:39.762Z,69.07
2018-09-09T03:24:07.806Z,69.94
2018-09-09T03:26:35.840Z,69.70
2018-09-09T03:29:04.669Z,69.50
2018-09-09T03:31:32.701Z,69.57
2018-09-09T03:34:00.749Z,69.73
2018-09-09T03:36:29.113Z,68.74
2018-09-09T03:38:57.283Z,69.60
2018-09-09T03:41:25.295Z,69.31
2018-09-09T03:43:53.967Z,69.28
2018-09-09T03:46:21.997Z,68.98
2018-09-09T03:48:50.018Z,69.23
2018-09-09T03:51:18.213Z,69.22
2018-09-09T03:53:46.381Z,68.64
2018-09-09T03:56:14.468Z,69.08
2018-09-09T03:58:42.654Z,69.60
2018-09-09T04:01:10.693Z,68.83
2018-09-09T04:03:38.831Z,69.29
2018-09-09T04:06:06.912Z,69.09
2018-09-09T04:08:34.959Z,68.95
2018-09-09T04:11:07.436Z,69.41
2018-09-09T04:13:35.464Z,69.00
2018-09-09T04:16:03.488Z,69.04
2018-09-09T04:18:31.516Z,69.21
2018-09-09T04:20:59.544Z,69.01
2018-09-09T04:23:27.955Z,69.22
2018-09-09T04:25:55.992Z,69.44
2018-09-09T04:28:24.293Z,69.25
2018-09-09T04:30:52.891Z,68.90
2018-09-09T04:33:21.156Z,69.20
2018-09-09T04:35:49.591Z,69.50
2018-09-09T04:38:24.682Z,69.66
2018-09-09T04:40:52.769Z,69.85
2018-09-09T04:43:21.004Z,69.60
2018-09-09T04:45:49.248Z,68.98
2018-09-09T04:48:17.288Z,69.57
2018-09-09T04:50:45.741Z,70.15
2018-09-09T04:53:14.015Z,69.64
2018-09-09T04:55:48.739Z,69.03
2018-09-09T04:58:16.931Z,69.33
2018-09-09T05:00:44.967Z,69.35
2018-09-09T05:03:13.368Z,69.57
2018-09-09T05:05:41.404Z,69.75
2018-09-09T05:08:09.438Z,69.75
2018-09-09T05:10:37.469Z,70.04
2018-09-09T05:13:05.770Z,69.19
2018-09-09T05:15:33.797Z,69.60
2018-09-09T05:18:02.096Z,69.58
2018-09-09T05:20:30.196Z,69.70
2018-09-09T05:22:58.288Z,69.24
2018-09-09T05:25:26.332Z,69.47
2018-09-09T05:27:54.446Z,69.57
2018-09-09T05:30:22.453Z,70.42
2018-09-09T05:32:50.560Z,69.91
2018-09-09T05:35:18.781Z,70.42
2018-09-09T05:37:46.830Z,70.36
2018-09-09T05:40:14.886Z,69.43
2018-09-09T05:42:43.158Z,70.14
2018-09-09T05:45:11.317Z,69.95
2018-09-09T05:47:39.369Z,70.42
2018-09-09T05:50:07.466Z,70.10
2018-09-09T05:52:35.499Z,70.06
2018-09-09T05:55:03.844Z,70.39
2018-09-09T05:57:31.898Z,69.78
2018-09-09T06:00:00.243Z,69.54
2018-09-09T06:02:28.282Z,69.83
2018-09-09T06:04:56.328Z,70.38
2018-09-09T06:07:24.455Z,69.81
2018-09-09T06:09:52.556Z,69.58
2018-09-09T06:12:20.903Z,70.53
2018-09-09T06:14:48.941Z,70.19
2018-09-09T06:17:33.912Z,69.56
2018-09-09T06:20:03.243Z,69.78
2018-09-09T06:22:51.604Z,69.97
2018-09-09T06:25:19.948Z,70.06
2018-09-09T06:27:48.093Z,69.63
2018-09-09T06:30:16.606Z,70.17
2018-09-09T06:32:44.664Z,69.59
2018-09-09T06:35:12.702Z,69.77
2018-09-09T06:37:40.728Z,69.33
2018-09-09T06:40:08.993Z,69.38
2018-09-09T06:42:37.037Z,69.42
2018-09-09T06:45:05.855Z,69.81
2018-09-09T06:47:33.912Z,69.37
2018-09-09T06:50:01.981Z,70.02
2018-09-09T06:52:30.018Z,69.49
2018-09-09T06:54:58.384Z,70.04
2018-09-09T06:57:26.356Z,69.40
2018-09-09T06:59:54.424Z,69.21
2018-09-09T07:02:22.526Z,69.58
2018-09-09T07:04:50.647Z,68.96
2018-09-09T07:07:18.920Z,68.29
2018-09-09T07:09:47.011Z,68.95
2018-09-09T07:12:15.264Z,68.69
2018-09-09T07:14:43.430Z,68.90
2018-09-09T07:17:11.546Z,68.09
2018-09-09T07:19:39.709Z,68.57
2018-09-09T07:22:08.134Z,68.99
2018-09-09T07:24:36.315Z,68.56
2018-09-09T07:27:04.681Z,67.63
2018-09-09T07:29:32.729Z,67.24
2018-09-09T07:32:00.833Z,67.03
2018-09-09T07:34:28.884Z,66.30
2018-09-09T07:36:57.198Z,65.73
2018-09-09T07:39:25.477Z,65.76
2018-09-09T07:41:53.537Z,65.77
2018-09-09T07:44:21.608Z,66.21
2018-09-09T07:46:49.654Z,65.62
2018-09-09T07:49:17.791Z,64.29
2018-09-09T07:51:46.148Z,64.52
2018-09-09T07:54:14.510Z,64.66
2018-09-09T07:56:42.581Z,64.02
2018-09-09T07:59:10.639Z,64.28
2018-09-09T08:01:38.672Z,62.72
2018-09-09T08:04:06.699Z,63.25
2018-09-09T08:06:34.735Z,63.34
2018-09-09T08:09:02.903Z,63.06
2018-09-09T08:11:37.039Z,63.15
2018-09-09T08:14:05.700Z,62.66
2018-09-09T08:16:34.081Z,61.20
2018-09-09T08:19:02.291Z,61.71
2018-09-09T08:21:30.357Z,61.23
2018-09-09T08:23:58.706Z,59.91
2018-09-09T08:26:26.811Z,60.16
2018-09-09T08:28:54.930Z,58.61
2018-09-09T08:31:23.536Z,58.03
2018-09-09T08:33:51.581Z,57.98
2018-09-09T08:36:19.607Z,56.08
2018-09-09T08:38:47.878Z,56.41
2018-09-09T08:41:15.914Z,56.90
2018-09-09T08:43:44.221Z,57.16
2018-09-09T08:46:12.276Z,57.51
2018-09-09T08:48:40.512Z,57.58
2018-09-09T08:51:08.556Z,56.11
2018-09-09T08:53:36.607Z,55.99
2018-09-09T08:56:04.949Z,56.21
2018-09-09T08:58:32.986Z,55.38
2018-09-09T09:01:01.039Z,53.94
2018-09-09T09:03:29.400Z,53.95
2018-09-09T09:06:19.281Z,52.78
2018-09-09T09:11:37.656Z,52.44
2018-09-09T09:14:05.723Z,52.45
2018-09-09T09:16:33.745Z,52.23
2018-09-09T09:19:01.859Z,52.36
2018-09-09T09:21:30.921Z,49.86
2018-09-09T09:23:59.124Z,50.88
2018-09-09T09:26:27.154Z,49.23
2018-09-09T09:28:55.354Z,48.96
2018-09-09T09:31:23.562Z,48.67
2018-09-09T09:33:51.579Z,46.97
2018-09-09T09:36:19.620Z,46.81
2018-09-09T09:38:48.666Z,46.26
2018-09-09T09:41:16.701Z,47.10
2018-09-09T09:43:44.733Z,47.90
2018-09-09T09:46:15.752Z,47.33
2018-09-09T09:48:43.786Z,47.44
2018-09-09T09:51:12.000Z,44.96
2018-09-09T09:53:40.104Z,45.88
2018-09-09T09:56:08.277Z,45.43
2018-09-09T09:58:36.477Z,47.05
2018-09-09T10:01:04.769Z,46.65
2018-09-09T10:03:32.843Z,46.45
2018-09-09T10:06:00.826Z,47.29
2018-09-09T10:08:28.877Z,47.96
2018-09-09T10:10:56.951Z,47.88
2018-09-09T10:13:24.986Z,48.48
2018-09-09T10:15:53.025Z,47.64
2018-09-09T10:18:21.057Z,48.10
2018-09-09T10:20:49.105Z,46.80
2018-09-09T10:23:17.118Z,46.48
2018-09-09T10:25:45.155Z,47.68
2018-09-09T10:28:13.200Z,47.48
2018-09-09T10:30:41.410Z,46.22
2018-09-09T10:33:09.469Z,46.83
2018-09-09T10:35:37.501Z,45.97
2018-09-09T10:38:06.520Z,47.42
2018-09-09T10:40:34.567Z,46.27
2018-09-09T10:43:02.632Z,45.86
2018-09-09T10:45:30.671Z,45.35
2018-09-09T10:47:58.719Z,46.35
2018-09-09T10:50:26.749Z,46.84
2018-09-09T10:52:54.786Z,47.41
2018-09-09T10:55:22.868Z,45.84
2018-09-09T10:57:50.917Z,46.45
2018-09-09T11:00:18.933Z,45.11
2018-09-09T11:02:46.980Z,46.19
2018-09-09T11:05:15.035Z,46.50
2018-09-09T11:07:43.072Z,45.67
2018-09-09T11:10:11.175Z,45.93
2018-09-09T11:12:39.324Z,45.58
2018-09-09T11:15:07.270Z,45.35
2018-09-09T11:17:35.520Z,46.39
2018-09-09T11:20:04.688Z,44.93
2018-09-09T11:22:32.717Z,44.55
2018-09-09T11:25:00.749Z,43.71
2018-09-09T11:27:28.796Z,44.83
2018-09-09T11:29:57.077Z,43.38
2018-09-09T11:32:25.369Z,42.45
2018-09-09T11:34:53.410Z,42.90
2018-09-09T11:37:21.447Z,42.19
2018-09-09T11:39:49.578Z,41.93
2018-09-09T11:42:17.757Z,41.71
2018-09-09T11:44:45.840Z,40.37
2018-09-09T11:47:13.881Z,40.10
2018-09-09T11:49:41.931Z,40.38
2018-09-09T11:52:09.972Z,40.61
2018-09-09T11:54:38.024Z,42.08
2018-09-09T11:57:06.079Z,42.20
2018-09-09T11:59:34.273Z,40.84
2018-09-09T12:02:02.340Z,41.69
2018-09-09T12:04:30.721Z,41.55
2018-09-09T12:06:59.727Z,40.85
2018-09-09T12:09:27.787Z,41.63
2018-09-09T12:11:55.854Z,41.06
2018-09-09T12:14:24.184Z,39.62
2018-09-09T12:16:52.240Z,38.49
2018-09-09T12:19:20.272Z,38.28
2018-09-09T12:21:48.313Z,38.06
2018-09-09T12:24:16.359Z,39.91
2018-09-09T12:26:44.406Z,39.83
2018-09-09T12:29:12.624Z,38.53
2018-09-09T12:31:40.657Z,38.38
2018-09-09T12:34:08.701Z,38.94
2018-09-09T12:36:36.942Z,39.97
2018-09-09T12:39:06.499Z,39.78
2018-09-09T12:41:34.540Z,39.31
2018-09-09T12:44:08.092Z,38.92
2018-09-09T12:46:41.524Z,40.11
2018-09-09T12:49:09.716Z,39.31
2018-09-09T12:51:37.850Z,39.70
2018-09-09T12:54:05.913Z,39.35
2018-09-09T12:56:33.993Z,39.11
2018-09-09T12:59:02.085Z,38.84
2018-09-09T13:01:30.176Z,39.80
2018-09-09T13:03:58.607Z,39.29
2018-09-09T13:06:26.985Z,39.73
2018-09-09T13:08:55.121Z,39.68
2018-09-09T13:11:23.197Z,41.28
2018-09-09T13:13:51.248Z,39.83
2018-09-09T13:16:19.850Z,40.69
2018-09-09T13:18:47.922Z,41.49
2018-09-09T13:21:15.967Z,39.84
2018-09-09T13:23:44.012Z,40.62
2018-09-09T13:26:12.066Z,41.68
2018-09-09T13:28:40.205Z,41.96
2018-09-09T13:31:08.255Z,39.35
2018-09-09T13:33:36.294Z,39.67
2018-09-09T13:36:05.151Z,40.23
2018-09-09T13:38:33.368Z,39.72
2018-09-09T13:41:01.436Z,40.67
2018-09-09T13:43:29.660Z,41.42
2018-09-09T13:45:57.706Z,40.99
2018-09-09T13:48:25.752Z,41.08
2018-09-09T13:50:53.798Z,40.98
2018-09-09T13:53:21.865Z,40.16
2018-09-09T13:55:50.281Z,40.52
2018-09-09T13:58:19.465Z,40.38
2018-09-09T14:00:47.821Z,40.92
2018-09-09T14:03:15.881Z,41.54
2018-09-09T14:05:44.332Z,41.24
2018-09-09T14:08:12.423Z,41.29
2018-09-09T14:10:40.479Z,41.87
2018-09-09T14:13:08.549Z,42.25
2018-09-09T14:15:41.620Z,41.16
2018-09-09T14:18:09.691Z,41.54
2018-09-09T14:20:37.731Z,41.37
2018-09-09T14:23:05.868Z,42.24
2018-09-09T14:25:34.211Z,42.45
2018-09-09T14:28:02.381Z,42.80
2018-09-09T14:33:27.088Z,42.34
2018-09-09T14:35:55.120Z,42.78
2018-09-09T14:38:24.213Z,43.64
2018-09-09T14:40:52.253Z,43.60
2018-09-09T14:43:26.689Z,42.50
2018-09-09T14:45:55.564Z,43.00
2018-09-09T14:48:23.563Z,43.17
2018-09-09T14:50:51.625Z,42.53
2018-09-09T14:53:19.855Z,40.91
2018-09-09T14:55:47.840Z,40.96
2018-09-09T14:58:15.929Z,41.60
2018-09-09T15:00:43.986Z,41.77
2018-09-09T15:03:12.030Z,40.48
2018-09-09T15:05:40.090Z,42.08
2018-09-09T15:08:08.152Z,41.01
2018-09-09T15:10:36.376Z,41.50
2018-09-09T15:13:05.005Z,41.75
2018-09-09T15:15:33.041Z,42.73
2018-09-09T15:18:01.529Z,41.91
2018-09-09T15:20:29.649Z,42.22
2018-09-09T15:22:57.772Z,42.69
2018-09-09T15:25:25.877Z,42.52
2018-09-09T15:27:53.952Z,42.66
2018-09-09T15:30:22.140Z,43.26
2018-09-09T15:32:50.244Z,42.49
2018-09-09T15:35:18.288Z,43.60
2018-09-09T15:37:46.336Z,42.27
2018-09-09T15:40:14.409Z,43.62
2018-09-09T15:42:42.685Z,42.71
2018-09-09T15:45:10.926Z,42.77
2018-09-09T15:47:38.963Z,43.00
2018-09-09T15:50:07.021Z,43.09
2018-09-09T15:52:35.123Z,43.74
2018-09-09T15:55:03.157Z,43.28
2018-09-09T15:57:31.473Z,43.11
2018-09-09T15:59:59.541Z,42.90
2018-09-09T16:02:27.577Z,43.55
2018-09-09T16:04:56.051Z,44.44
2018-09-09T16:07:24.152Z,43.70
2018-09-09T16:09:52.545Z,43.87
2018-09-09T16:12:20.575Z,43.48
2018-09-09T16:14:48.727Z,44.38
2018-09-09T16:17:16.950Z,44.39
2018-09-09T16:19:44.990Z,44.45
2018-09-09T16:22:13.048Z,44.69
2018-09-09T16:24:41.284Z,44.76
2018-09-09T16:27:09.365Z,45.04
2018-09-09T16:29:37.419Z,44.86
2018-09-09T16:32:05.490Z,44.01
2018-09-09T16:34:33.583Z,44.42
2018-09-09T16:37:01.667Z,44.40
2018-09-09T16:39:29.713Z,45.36
2018-09-09T16:41:57.756Z,45.87
2018-09-09T16:44:25.805Z,44.72
2018-09-09T16:46:53.845Z,45.82
2018-09-09T16:49:21.903Z,45.77
2018-09-09T16:51:50.268Z,46.03
2018-09-09T16:54:18.612Z,45.90
2018-09-09T16:56:46.700Z,45.89
2018-09-09T16:59:15.048Z,47.00
2018-09-09T17:01:43.439Z,47.40
2018-09-09T17:04:11.985Z,47.28
2018-09-09T17:06:40.149Z,47.75
2018-09-09T17:09:09.409Z,47.52
2018-09-09T17:11:37.761Z,48.05
2018-09-09T17:14:05.924Z,48.29
2018-09-09T17:16:33.940Z,48.46
2018-09-09T17:19:02.139Z,49.14
2018-09-09T17:21:30.197Z,49.03
2018-09-09T17:23:58.293Z,48.84
2018-09-09T17:26:26.337Z,48.35
2018-09-09T17:28:54.372Z,49.29
2018-09-09T17:31:22.418Z,49.59
2018-09-09T17:33:50.504Z,49.75
2018-09-09T17:36:18.576Z,49.32
2018-09-09T17:38:46.644Z,50.04
2018-09-09T17:41:14.692Z,49.81
2018-09-09T17:43:42.737Z,50.32
2018-09-09T17:46:10.832Z,50.30
2018-09-09T17:48:39.024Z,50.87
2018-09-09T17:51:07.056Z,50.56
2018-09-09T17:53:35.637Z,51.48
2018-09-09T17:56:04.881Z,51.49
2018-09-09T17:58:33.090Z,51.52
2018-09-09T18:01:01.234Z,51.29
2018-09-09T18:03:29.289Z,51.15
2018-09-09T18:05:57.548Z,51.68
2018-09-09T18:08:25.592Z,52.93
2018-09-09T18:10:53.668Z,53.14
2018-09-09T18:13:21.702Z,52.72
2018-09-09T18:15:49.833Z,52.65
2018-09-09T18:18:17.815Z,52.77
2018-09-09T18:20:45.925Z,53.04
2018-09-09T18:23:14.505Z,54.12
2018-09-09T18:25:48.796Z,53.45
2018-09-09T18:28:17.009Z,53.70
2018-09-09T18:30:45.062Z,54.39
2018-09-09T18:33:13.169Z,54.87
2018-09-09T18:35:41.233Z,54.85
2018-09-09T18:38:09.552Z,55.25
2018-09-09T18:40:37.592Z,55.45
2018-09-09T18:43:05.653Z,55.90
2018-09-09T18:45:34.095Z,56.01
2018-09-09T18:48:02.656Z,55.86
2018-09-09T18:50:30.958Z,55.62
2018-09-09T18:52:59.045Z,56.11
2018-09-09T18:55:27.101Z,56.23
2018-09-09T18:57:55.340Z,55.98
2018-09-09T19:00:23.412Z,56.36
2018-09-09T19:02:51.449Z,56.91
2018-09-09T19:05:19.488Z,56.60
2018-09-09T19:07:47.969Z,56.85
2018-09-09T19:10:16.075Z,56.75
2018-09-09T19:12:44.165Z,57.78
2018-09-09T19:15:12.232Z,57.65
2018-09-09T19:17:40.538Z,57.08
2018-09-09T19:20:08.940Z,57.13
2018-09-09T19:22:36.973Z,57.45
2018-09-09T19:25:05.039Z,57.66
2018-09-09T19:27:33.253Z,58.15
2018-09-09T19:30:01.509Z,58.03
2018-09-09T19:32:29.587Z,58.88
2018-09-09T19:34:57.660Z,58.56
2018-09-09T19:37:26.014Z,58.56
2018-09-09T19:39:54.071Z,58.99
2018-09-09T19:42:22.639Z,59.63
2018-09-09T19:44:50.683Z,59.27
2018-09-09T19:47:18.745Z,60.06
2018-09-09T19:49:46.834Z,59.77
2018-09-09T19:52:14.873Z,60.06
2018-09-09T19:54:42.920Z,60.40
2018-09-09T19:57:12.135Z,60.89
2018-09-09T19:59:40.190Z,61.06
2018-09-09T20:02:08.279Z,60.85
2018-09-09T20:04:36.768Z,60.88
2018-09-09T20:07:05.018Z,60.31
2018-09-09T20:09:33.721Z,60.92
2018-09-09T20:12:01.781Z,60.60
2018-09-09T20:14:29.873Z,60.82
2018-09-09T20:16:58.045Z,60.65
2018-09-09T20:19:26.096Z,61.35
2018-09-09T20:21:54.131Z,61.34
2018-09-09T20:24:23.189Z,61.32
2018-09-09T20:26:51.235Z,61.69
2018-09-09T20:32:11.528Z,61.36
2018-09-09T20:34:39.600Z,61.88
2018-09-09T20:37:07.820Z,61.65
2018-09-09T20:39:36.355Z,61.65
2018-09-09T20:42:04.804Z,61.44
2018-09-09T20:44:33.061Z,62.11
2018-09-09T20:47:01.103Z,61.65
2018-09-09T20:49:29.158Z,62.02
2018-09-09T20:51:57.192Z,62.22
2018-09-09T20:54:25.394Z,62.17
2018-09-09T20:56:53.444Z,61.96
2018-09-09T20:59:21.493Z,61.62
2018-09-09T21:01:49.556Z,62.03
2018-09-09T21:04:17.605Z,61.94
2018-09-09T21:06:45.832Z,61.97
2018-09-09T21:09:14.164Z,62.11
2018-09-09T21:11:42.941Z,62.14
2018-09-09T21:14:11.128Z,62.71
2018-09-09T21:16:39.326Z,61.45
2018-09-09T21:19:07.469Z,62.28
2018-09-09T21:21:35.661Z,62.63
2018-09-09T21:24:04.723Z,62.57
2018-09-09T21:26:32.796Z,62.61
2018-09-09T21:29:00.850Z,62.29
2018-09-09T21:31:29.712Z,62.72
2018-09-09T21:33:57.757Z,62.69
2018-09-09T21:36:25.811Z,62.44
2018-09-09T21:38:53.859Z,62.84
2018-09-09T21:41:21.914Z,62.76
2018-09-09T21:43:49.951Z,62.41
2018-09-09T21:46:18.004Z,62.45
2018-09-09T21:48:46.205Z,62.99
2018-09-09T21:51:14.258Z,62.79
2018-09-09T21:53:42.305Z,63.42
2018-09-09T21:56:10.727Z,63.24
2018-09-09T21:58:38.785Z,62.92
2018-09-09T22:01:12.093Z,63.44
2018-09-09T22:03:40.171Z,63.64
2018-09-09T22:06:08.202Z,63.63
2018-09-09T22:08:36.265Z,63.52
2018-09-09T22:11:04.783Z,63.65
2018-09-09T22:13:33.006Z,63.10
2018-09-09T22:16:01.055Z,63.06
2018-09-09T22:18:29.161Z,63.51
2018-09-09T22:20:57.199Z,63.09
2018-09-09T22:23:25.237Z,63.22
2018-09-09T22:25:53.378Z,63.49
2018-09-09T22:28:21.413Z,63.83
2018-09-09T22:30:49.463Z,63.08
2018-09-09T22:33:17.524Z,64.16
2018-09-09T22:35:45.584Z,63.66
2018-09-09T22:38:13.892Z,64.35
2018-09-09T22:40:42.141Z,63.54
2018-09-09T22:43:10.199Z,63.98
2018-09-09T22:45:38.237Z,63.45
2018-09-09T22:48:06.297Z,64.16
2018-09-09T22:50:34.357Z,64.04
2018-09-09T22:53:02.481Z,63.34
2018-09-09T22:55:31.034Z,64.15
2018-09-09T22:57:59.510Z,63.79
2018-09-09T23:00:27.546Z,63.92
2018-09-09T23:02:55.731Z,63.77
2018-09-09T23:05:23.817Z,64.31
2018-09-09T23:07:51.856Z,64.18
2018-09-09T23:10:19.903Z,63.84
2018-09-09T23:12:47.952Z,63.75
2018-09-09T23:15:16.008Z,64.30
2018-09-09T23:17:44.089Z,64.06
2018-09-09T23:20:12.444Z,64.47
2018-09-09T23:22:40.838Z,63.83
2018-09-09T23:25:08.903Z,63.10
2018-09-09T23:27:36.987Z,63.79
2018-09-09T23:30:05.377Z,64.14
2018-09-09T23:32:33.437Z,63.74
2018-09-09T23:35:01.487Z,64.65
2018-09-09T23:37:29.609Z,64.01
2018-09-09T23:39:57.652Z,64.67
2018-09-09T23:42:25.724Z,64.20
2018-09-09T23:44:53.963Z,64.34
2018-09-09T23:47:22.177Z,64.21
2018-09-09T23:49:50.221Z,64.51
2018-09-09T23:52:18.273Z,64.63
2018-09-09T23:54:46.524Z,64.44
2018-09-09T23:57:14.578Z,64.46
2018-09-09T23:59:42.641Z,64.00
